createdAt,value
2017-09-09T00:03:00.566Z,18.60
2017-09-09T00:08:04.319Z,18.61
2017-09-09T00:13:13.189Z,18.58
2017-09-09T00:18:18.304Z,18.50
2017-09-09T00:23:21.741Z,18.55
2017-09-09T00:28:28.315Z,18.47
2017-09-09T00:33:31.531Z,18.48
2017-09-09T00:38:39.865Z,18.41
2017-09-09T00:43:42.948Z,18.34
2017-09-09T00:48:45.550Z,18.37
2017-09-09T00:53:47.645Z,18.33
2017-09-09T00:58:49.647Z,18.33
2017-09-09T01:03:52.298Z,18.37
2017-09-09T01:08:54.936Z,18.40
2017-09-09T01:13:57.484Z,18.30
2017-09-09T01:18:59.740Z,18.30
2017-09-09T01:24:02.338Z,18.31
2017-09-09T01:29:04.972Z,18.28
2017-09-09T01:34:07.273Z,18.34
2017-09-09T01:39:09.251Z,18.37
2017-09-09T01:44:11.224Z,18.41
2017-09-09T01:49:13.167Z,18.43
2017-09-09T01:54:15.092Z,18.35
2017-09-09T01:59:17.030Z,18.43
2017-09-09T02:04:18.943Z,18.42
2017-09-09T02:09:20.870Z,18.38
2017-09-09T02:14:22.783Z,18.29
2017-09-09T02:19:24.743Z,18.34
2017-09-09T02:24:26.739Z,18.41
2017-09-09T02:29:28.697Z,18.42
2017-09-09T02:34:30.645Z,18.45
2017-09-09T02:39:32.624Z,18.31
2017-09-09T02:44:34.612Z,18.20
2017-09-09T02:49:36.640Z,18.15
2017-09-09T02:54:38.638Z,18.13
2017-09-09T02:59:40.580Z,18.06
2017-09-09T03:04:48.419Z,18.00
2017-09-09T03:09:54.782Z,18.01
2017-09-09T03:14:59.105Z,17.95
2017-09-09T03:20:01.416Z,17.89
2017-09-09T03:25:03.509Z,17.84
2017-09-09T03:30:05.857Z,17.83
2017-09-09T03:35:09.510Z,17.80
2017-09-09T03:40:14.096Z,17.81
2017-09-09T03:45:16.021Z,17.65
2017-09-09T03:50:18.389Z,17.68
2017-09-09T03:55:20.492Z,17.66
2017-09-09T04:00:27.266Z,17.66
2017-09-09T04:05:31.945Z,17.67
2017-09-09T04:10:36.169Z,17.68
2017-09-09T04:15:42.092Z,17.66
2017-09-09T04:20:44.252Z,17.66
2017-09-09T04:25:46.331Z,17.69
2017-09-09T04:30:48.374Z,17.72
2017-09-09T04:35:51.550Z,17.72
2017-09-09T04:40:56.897Z,17.76
2017-09-09T04:46:00.604Z,17.80
2017-09-09T04:51:02.791Z,17.82
2017-09-09T04:56:04.857Z,17.85
2017-09-09T05:01:06.815Z,17.91
2017-09-09T05:06:09.276Z,17.90
2017-09-09T05:11:11.277Z,17.90
2017-09-09T05:16:13.304Z,17.89
2017-09-09T05:21:15.260Z,17.90
2017-09-09T05:26:17.738Z,17.87
2017-09-09T05:31:19.863Z,17.87
2017-09-09T05:36:21.933Z,17.95
2017-09-09T05:41:24.511Z,17.98
2017-09-09T05:46:26.628Z,17.92
2017-09-09T05:51:28.604Z,17.89
2017-09-09T05:56:30.548Z,17.87
2017-09-09T06:01:32.885Z,17.89
2017-09-09T06:06:34.944Z,17.91
2017-09-09T06:11:36.888Z,17.96
2017-09-09T06:16:38.840Z,17.99
2017-09-09T06:21:40.760Z,17.99
2017-09-09T06:26:42.737Z,17.98
2017-09-09T06:31:45.629Z,18.01
2017-09-09T06:36:47.565Z,17.98
2017-09-09T06:41:50.021Z,18.00
2017-09-09T06:46:52.337Z,18.05
2017-09-09T06:51:54.775Z,18.12
2017-09-09T06:56:56.705Z,18.11
2017-09-09T07:01:59.046Z,18.15
2017-09-09T07:07:01.570Z,18.16
2017-09-09T07:12:04.501Z,18.09
2017-09-09T07:17:07.076Z,18.13
2017-09-09T07:22:09.342Z,18.17
2017-09-09T07:27:11.759Z,18.25
2017-09-09T07:32:14.064Z,18.05
2017-09-09T07:37:16.447Z,17.74
2017-09-09T07:42:18.788Z,17.44
2017-09-09T07:47:20.722Z,17.39
2017-09-09T07:52:29.554Z,17.30
2017-09-09T07:57:31.753Z,17.40
2017-09-09T08:02:33.692Z,17.50
2017-09-09T08:07:35.674Z,17.62
2017-09-09T08:12:37.649Z,17.73
2017-09-09T08:17:39.579Z,17.70
2017-09-09T08:22:41.526Z,17.58
2017-09-09T08:27:43.584Z,17.63
2017-09-09T08:32:45.528Z,17.68
2017-09-09T08:37:47.615Z,17.81
2017-09-09T08:42:49.594Z,17.90
2017-09-09T08:47:51.552Z,18.00
2017-09-09T08:52:56.300Z,17.89
2017-09-09T08:57:58.240Z,17.98
2017-09-09T09:03:00.170Z,18.38
2017-09-09T09:08:02.089Z,18.58
2017-09-09T09:13:04.051Z,18.82
2017-09-09T09:18:06.028Z,18.55
2017-09-09T09:23:08.041Z,18.40
2017-09-09T09:28:10.002Z,18.54
2017-09-09T09:33:12.139Z,18.79
2017-09-09T09:38:14.110Z,19.16
2017-09-09T09:43:16.043Z,19.55
2017-09-09T09:48:17.967Z,19.93
2017-09-09T09:53:19.919Z,19.85
2017-09-09T09:58:22.670Z,19.81
2017-09-09T10:03:24.607Z,20.13
2017-09-09T10:08:26.589Z,19.98
2017-09-09T10:13:28.609Z,20.08
2017-09-09T10:18:30.551Z,19.97
2017-09-09T10:23:32.535Z,19.80
2017-09-09T10:28:34.579Z,19.74
2017-09-09T10:33:36.576Z,19.83
2017-09-09T10:38:38.551Z,20.21
2017-09-09T10:43:40.482Z,20.70
2017-09-09T10:48:42.524Z,20.56
2017-09-09T10:53:44.447Z,20.46
2017-09-09T10:58:46.376Z,20.56
2017-09-09T11:03:48.357Z,20.94
2017-09-09T11:08:50.305Z,21.37
2017-09-09T11:13:54.537Z,21.66
2017-09-09T11:18:56.953Z,21.26
2017-09-09T11:23:59.053Z,20.61
2017-09-09T11:29:01.428Z,20.73
2017-09-09T11:34:04.050Z,20.58
2017-09-09T11:39:06.764Z,20.72
2017-09-09T11:44:24.654Z,21.22
2017-09-09T11:49:27.363Z,21.38
2017-09-09T11:54:29.592Z,21.43
2017-09-09T11:59:31.825Z,21.14
2017-09-09T12:04:34.021Z,20.62
2017-09-09T12:09:36.295Z,20.53
2017-09-09T12:14:38.457Z,21.07
2017-09-09T12:19:40.692Z,21.36
2017-09-09T12:24:43.549Z,21.74
2017-09-09T12:29:45.733Z,21.87
2017-09-09T12:34:47.727Z,22.36
2017-09-09T12:39:49.719Z,22.03
2017-09-09T12:44:51.698Z,21.65
2017-09-09T12:49:53.650Z,21.34
2017-09-09T12:54:55.996Z,21.16
2017-09-09T12:59:57.951Z,20.83
2017-09-09T13:04:59.872Z,20.53
2017-09-09T13:10:01.812Z,20.71
2017-09-09T13:15:03.773Z,21.02
2017-09-09T13:20:05.839Z,21.18
2017-09-09T13:25:07.782Z,21.15
2017-09-09T13:30:09.763Z,21.30
2017-09-09T13:35:11.708Z,21.35
2017-09-09T13:40:13.652Z,21.55
2017-09-09T13:45:15.988Z,21.88
2017-09-09T13:50:17.971Z,22.50
2017-09-09T13:55:20.192Z,22.64
2017-09-09T14:00:22.133Z,22.74
2017-09-09T14:05:24.095Z,22.39
2017-09-09T14:10:26.340Z,22.28
2017-09-09T14:15:28.408Z,22.17
2017-09-09T14:20:30.345Z,22.12
2017-09-09T14:25:32.294Z,21.93
2017-09-09T14:30:34.384Z,22.17
2017-09-09T14:35:36.478Z,22.35
2017-09-09T14:40:38.447Z,22.07
2017-09-09T14:45:40.467Z,22.10
2017-09-09T14:50:42.413Z,22.56
2017-09-09T14:55:44.522Z,22.98
2017-09-09T15:00:46.460Z,23.15
2017-09-09T15:05:48.412Z,23.00
2017-09-09T15:10:50.449Z,22.67
2017-09-09T15:15:52.403Z,22.47
2017-09-09T15:20:54.360Z,22.35
2017-09-09T15:25:56.454Z,22.11
2017-09-09T15:30:59.050Z,21.75
2017-09-09T15:36:01.290Z,21.12
2017-09-09T15:41:10.295Z,20.61
2017-09-09T15:46:12.728Z,20.31
2017-09-09T15:51:14.981Z,20.04
2017-09-09T15:56:16.910Z,19.74
2017-09-09T16:01:18.851Z,19.41
2017-09-09T16:06:20.759Z,19.17
2017-09-09T16:11:22.859Z,19.01
2017-09-09T16:16:25.378Z,19.01
2017-09-09T16:21:27.312Z,19.23
2017-09-09T16:26:29.247Z,19.39
2017-09-09T16:31:34.236Z,19.53
2017-09-09T16:36:37.165Z,19.47
2017-09-09T16:41:39.139Z,19.41
2017-09-09T16:46:41.527Z,19.49
2017-09-09T16:51:43.620Z,19.52
2017-09-09T16:56:45.562Z,19.47
2017-09-09T17:01:47.576Z,19.44
2017-09-09T17:06:49.505Z,19.32
2017-09-09T17:11:51.915Z,19.26
2017-09-09T17:16:53.835Z,19.24
2017-09-09T17:21:55.786Z,19.19
2017-09-09T17:26:57.775Z,19.00
2017-09-09T17:31:59.779Z,18.96
2017-09-09T17:37:01.752Z,18.69
2017-09-09T17:42:03.759Z,18.53
2017-09-09T17:47:05.778Z,18.33
2017-09-09T17:52:07.746Z,18.26
2017-09-09T17:57:09.671Z,18.25
2017-09-09T18:02:11.583Z,18.21
2017-09-09T18:07:13.529Z,18.16
2017-09-09T18:12:16.647Z,17.94
2017-09-09T18:17:18.960Z,17.80
2017-09-09T18:22:24.769Z,17.63
2017-09-09T18:27:26.763Z,17.51
2017-09-09T18:32:35.455Z,17.48
2017-09-09T18:37:37.491Z,17.40
2017-09-09T18:42:40.526Z,17.31
2017-09-09T18:47:42.507Z,17.28
2017-09-09T18:52:44.499Z,17.21
2017-09-09T18:57:46.567Z,17.11
2017-09-09T19:02:48.566Z,17.03
2017-09-09T19:07:54.181Z,16.98
2017-09-09T19:12:56.221Z,16.94
2017-09-09T19:17:58.179Z,16.87
2017-09-09T19:23:00.267Z,16.81
2017-09-09T19:28:02.243Z,16.78
2017-09-09T19:33:09.054Z,16.66
2017-09-09T19:38:11.078Z,16.71
2017-09-09T19:43:13.388Z,16.63
2017-09-09T19:48:15.399Z,16.66
2017-09-09T19:53:17.309Z,16.60
2017-09-09T19:58:20.175Z,16.46
2017-09-09T20:03:22.255Z,16.41
2017-09-09T20:08:24.204Z,16.42
2017-09-09T20:13:26.172Z,16.30
2017-09-09T20:18:28.159Z,16.25
2017-09-09T20:23:30.156Z,16.29
2017-09-09T20:28:32.123Z,16.23
2017-09-09T20:33:34.055Z,16.25
2017-09-09T20:38:35.996Z,16.31
2017-09-09T20:43:37.912Z,16.29
2017-09-09T20:48:39.831Z,16.28
2017-09-09T20:53:41.815Z,16.25
2017-09-09T20:58:43.850Z,16.16
2017-09-09T21:03:45.763Z,16.13
2017-09-09T21:08:47.690Z,16.05
2017-09-09T21:13:50.669Z,16.05
2017-09-09T21:18:52.659Z,16.00
2017-09-09T21:23:54.596Z,15.95
2017-09-09T21:28:58.004Z,15.86
2017-09-09T21:33:59.933Z,15.87
2017-09-09T21:39:01.877Z,15.83
2017-09-09T21:44:03.854Z,15.79
2017-09-09T21:49:05.810Z,15.76
2017-09-09T21:54:07.787Z,15.73
2017-09-09T21:59:09.717Z,15.72
2017-09-09T22:04:11.808Z,15.69
2017-09-09T22:09:14.041Z,15.65
2017-09-09T22:14:16.113Z,15.65
2017-09-09T22:19:19.174Z,15.68
2017-09-09T22:24:21.116Z,15.71
2017-09-09T22:29:23.077Z,15.66
2017-09-09T22:34:25.059Z,15.59
2017-09-09T22:39:27.068Z,15.56
2017-09-09T22:44:29.046Z,15.53
2017-09-09T22:49:31.384Z,15.51
2017-09-09T22:54:33.372Z,15.50
2017-09-09T22:59:35.330Z,15.42
2017-09-09T23:04:37.273Z,15.40
2017-09-09T23:09:39.233Z,15.44
2017-09-09T23:14:41.195Z,15.46
2017-09-09T23:19:43.179Z,15.44
2017-09-09T23:24:45.151Z,15.40
2017-09-09T23:29:47.094Z,15.34
2017-09-09T23:34:49.479Z,15.34
2017-09-09T23:39:51.526Z,15.30
2017-09-09T23:44:55.857Z,15.23
2017-09-09T23:49:57.833Z,15.17
2017-09-09T23:54:59.943Z,15.25
